Hermanville, Mississippi
Current Conditions -  °F | °C
As of 8:15 AM on Friday 19 Dec 2014 (Local Time) from KVKS Reporting Station
Overcast Overcast  
Wind Chill: 50°   Ceiling: 2600
Heat Index: 50°   Visibility: 10mi
Dew Point: 41°   Wind: 7mph
Humidity: 71%   Direction: NA
Pressure: 30.17"   Gusts: NA
Location:  31.96°N, 90.84°W
Report Text: KVKS 191415Z AUTO VRB06KT 10SM OVC026 10/05 A3017 RMK A01
Loading
Personal Weather Stations






























Interactive Weather Map New forecast layout! Learn more

10-Day Weather Forecast

Advertisements
Track Severe Weather on mobile